Airfield :
LOGIN :

Register | Disclaimer

   EN    FR    IT 

 










Legend :    VFR   Marginal VFR   IFR   Intensive IFR   Very Intensive IFR
Visi :
Ceiling :
>= 8 km
>= 3000ft
5 to 8 km
1000 to 3000 ft
1500m to 5 km
500 to 1000 ft
800 to 1500m
200 to 500 ft
< 800m
< 200 ft
Symbols :   Thunderstorms  Fog  Heavy snow  Heavy precipitations  Wind > 20 kt
SIGMETs :     Misc.  Thunderstorms  Icing  Turbulence  Mountain Waves  Volcanic Ashes







- Airport Elevation : 768 ft
- IATA code : MXP


LIMC - Milano Malpensa

CURRENT METAR :
  • 181550Z 31004KT CAVOK 10/M07 Q1011 NOSIG

EXPIRED METARs :
  • 181520Z 30004KT CAVOK 11/M08 Q1011 NOSIG
  • 181450Z 32003KT 270V010 CAVOK 11/M08 Q1011 NOSIG
  • 181420Z 34005KT 300V010 CAVOK 11/M08 Q1012 NOSIG
  • 181350Z 32006KT 280V350 CAVOK 11/M06 Q1012 NOSIG
  • 181320Z 29004KT 270V340 CAVOK 11/M05 Q1013 NOSIG
  • 181250Z 30003KT 270V080 CAVOK 11/M06 Q1013 NOSIG

TAF TAF LIMC
Valid from the 18 at 12:00 until the 19 at 18:00 UTC


181100Z 1812/1918 36008KT CAVOK
No reported NOTAMs for that airfield.



MET'MAP, your aeronautical weather chart ! - Copyright ORBIFLY December 2007 - Disclaimer

ORBIFLY MET'MAP TEAM :

Programming & Development : Alexandra Zaïnal
Concept & Development : Baudouin d'Aumeries
Co-Development & Prog : Marc-Olivier Méhu
Technical & hardware support : Manuel Goepfert

Contact : metmap@orbifly.com




SOURCES & CREDITS :

   NOAA